createdAt,value
2019-04-07T00:00:35.974Z,29.78
2019-04-07T00:01:17.207Z,29.78
2019-04-07T00:01:56.002Z,29.79
2019-04-07T00:02:38.544Z,29.79
2019-04-07T00:03:17.352Z,29.82
2019-04-07T00:03:54.939Z,29.84
2019-04-07T00:04:31.687Z,29.83
2019-04-07T00:05:12.509Z,29.83
2019-04-07T00:05:48.594Z,29.88
2019-04-07T00:06:25.860Z,29.91
2019-04-07T00:07:02.519Z,29.91
2019-04-07T00:07:39.434Z,29.91
2019-04-07T00:08:23.925Z,29.92
2019-04-07T00:09:01.627Z,29.90
2019-04-07T00:10:05.700Z,29.93
2019-04-07T00:10:43.514Z,29.96
2019-04-07T00:11:20.591Z,29.96
2019-04-07T00:11:57.655Z,29.99
2019-04-07T00:12:36.249Z,30.02
2019-04-07T00:13:13.627Z,30.02
2019-04-07T00:13:50.334Z,30.02
2019-04-07T00:14:30.035Z,30.12
2019-04-07T00:15:07.061Z,30.14
2019-04-07T00:15:44.244Z,30.18
2019-04-07T00:16:21.491Z,30.18
2019-04-07T00:16:58.573Z,30.23
2019-04-07T00:17:36.257Z,30.29
2019-04-07T00:18:12.628Z,30.33
2019-04-07T00:18:49.590Z,30.33
2019-04-07T00:19:33.756Z,30.34
2019-04-07T00:20:11.603Z,30.36
2019-04-07T00:20:48.472Z,30.43
2019-04-07T00:21:29.205Z,30.46
2019-04-07T00:22:10.591Z,30.46
2019-04-07T00:22:47.086Z,30.44
2019-04-07T00:23:26.230Z,30.49
2019-04-07T00:24:02.510Z,30.50
2019-04-07T00:24:39.281Z,30.50
2019-04-07T00:25:18.022Z,30.52
2019-04-07T00:25:55.809Z,30.49
2019-04-07T00:26:34.236Z,30.49
2019-04-07T00:27:12.369Z,30.53
2019-04-07T00:27:49.209Z,30.53
2019-04-07T00:28:25.972Z,30.49
2019-04-07T00:29:03.230Z,30.49
2019-04-07T00:29:43.154Z,30.53
2019-04-07T00:30:19.797Z,30.53
2019-04-07T00:30:59.502Z,30.53
2019-04-07T00:31:35.801Z,30.54
2019-04-07T00:32:14.132Z,30.50
2019-04-07T00:32:54.757Z,30.55
2019-04-07T00:33:41.359Z,30.54
2019-04-07T00:34:17.857Z,30.54
2019-04-07T00:34:55.235Z,30.54
2019-04-07T00:35:34.467Z,30.56
2019-04-07T00:36:11.325Z,30.56
2019-04-07T00:36:47.622Z,30.58
2019-04-07T00:37:24.651Z,30.63
2019-04-07T00:38:01.494Z,30.63
2019-04-07T00:38:39.401Z,30.75
2019-04-07T00:39:15.927Z,30.84
2019-04-07T00:39:54.105Z,31.06
2019-04-07T00:40:31.768Z,31.06
2019-04-07T00:41:12.684Z,31.17
2019-04-07T00:41:49.167Z,31.30
2019-04-07T00:42:27.410Z,31.30
2019-04-07T00:43:07.142Z,31.42
2019-04-07T00:43:46.031Z,31.51
2019-04-07T00:44:23.544Z,31.60
2019-04-07T00:45:00.843Z,31.69
2019-04-07T00:45:38.568Z,31.77
2019-04-07T00:46:15.244Z,31.86
2019-04-07T00:46:54.058Z,31.96
2019-04-07T00:47:30.955Z,31.99
2019-04-07T00:48:07.730Z,32.08
2019-04-07T00:48:46.282Z,32.17
2019-04-07T00:49:23.113Z,32.23
2019-04-07T00:50:03.059Z,32.30
2019-04-07T00:50:39.337Z,32.35
2019-04-07T00:51:16.754Z,32.41
2019-04-07T00:51:53.943Z,32.45
2019-04-07T00:52:30.278Z,32.48
2019-04-07T00:53:07.760Z,32.45
2019-04-07T00:53:45.435Z,32.41
2019-04-07T00:54:21.732Z,32.37
2019-04-07T00:54:57.964Z,32.36
2019-04-07T00:55:34.328Z,32.36
2019-04-07T00:56:11.589Z,32.36
2019-04-07T00:56:47.868Z,32.44
2019-04-07T00:57:24.180Z,32.55
2019-04-07T00:58:01.061Z,32.63
2019-04-07T00:58:37.885Z,32.72
2019-04-07T00:59:15.428Z,32.78
2019-04-07T00:59:51.753Z,32.88
2019-04-07T01:00:30.337Z,32.92
2019-04-07T01:01:07.566Z,32.86
2019-04-07T01:01:44.987Z,32.81
2019-04-07T01:02:21.681Z,32.83
2019-04-07T01:02:58.594Z,32.88
2019-04-07T01:03:34.998Z,32.89
2019-04-07T01:04:11.254Z,32.92
2019-04-07T01:04:47.677Z,32.91
2019-04-07T01:05:34.716Z,32.89
2019-04-07T01:06:02.211Z,32.88
2019-04-07T01:06:38.499Z,32.81
2019-04-07T01:07:14.705Z,32.73
2019-04-07T01:07:51.002Z,32.64
2019-04-07T01:08:27.284Z,32.56
2019-04-07T01:09:04.521Z,32.50
2019-04-07T01:09:40.754Z,32.44
2019-04-07T01:10:17.451Z,32.40
2019-04-07T01:10:53.563Z,32.36
2019-04-07T01:11:29.738Z,32.32
2019-04-07T01:12:07.219Z,32.29
2019-04-07T01:12:44.888Z,32.26
2019-04-07T01:13:21.194Z,32.25
2019-04-07T01:13:58.183Z,32.22
2019-04-07T01:14:37.104Z,32.21
2019-04-07T01:15:14.245Z,32.20
2019-04-07T01:15:50.672Z,32.20
2019-04-07T01:16:29.408Z,32.20
2019-04-07T01:17:07.124Z,32.18
2019-04-07T01:17:44.582Z,32.18
2019-04-07T01:18:21.736Z,32.20
2019-04-07T01:18:58.333Z,32.24
2019-04-07T01:19:34.613Z,32.26
2019-04-07T01:20:11.748Z,32.31
2019-04-07T01:20:48.403Z,32.36
2019-04-07T01:21:24.996Z,32.44
2019-04-07T01:22:02.371Z,32.50
2019-04-07T01:22:38.618Z,32.57
2019-04-07T01:23:15.037Z,32.65
2019-04-07T01:23:51.742Z,32.71
2019-04-07T01:24:28.631Z,32.75
2019-04-07T01:25:06.066Z,32.85
2019-04-07T01:25:42.373Z,32.94
2019-04-07T01:26:18.704Z,33.03
2019-04-07T01:26:55.849Z,33.13
2019-04-07T01:27:32.163Z,33.15
2019-04-07T01:28:08.537Z,33.24
2019-04-07T01:28:44.929Z,33.22
2019-04-07T01:29:21.847Z,33.31
2019-04-07T01:29:58.242Z,33.38
2019-04-07T01:30:34.937Z,33.47
2019-04-07T01:31:12.187Z,33.56
2019-04-07T01:31:48.516Z,33.55
2019-04-07T01:32:24.741Z,33.46
2019-04-07T01:33:01.054Z,33.36
2019-04-07T01:33:37.744Z,33.28
2019-04-07T01:34:14.014Z,33.20
2019-04-07T01:34:50.377Z,33.15
2019-04-07T01:35:26.741Z,33.08
2019-04-07T01:36:03.214Z,33.02
2019-04-07T01:36:39.479Z,32.96
2019-04-07T01:37:16.253Z,32.93
2019-04-07T01:37:52.401Z,32.88
2019-04-07T01:38:29.079Z,32.83
2019-04-07T01:39:08.680Z,32.82
2019-04-07T01:39:45.158Z,32.79
2019-04-07T01:40:21.404Z,32.73
2019-04-07T01:41:03.166Z,32.68
2019-04-07T01:41:46.477Z,32.67
2019-04-07T01:42:34.443Z,32.63
2019-04-07T01:43:30.751Z,32.58
2019-04-07T01:44:15.517Z,32.54
2019-04-07T01:45:11.555Z,32.47
2019-04-07T01:46:06.400Z,32.46
2019-04-07T01:46:54.742Z,32.43
2019-04-07T01:47:38.714Z,32.41
2019-04-07T01:48:27.433Z,32.41
2019-04-07T01:49:20.778Z,32.40
2019-04-07T01:50:08.613Z,32.41
2019-04-07T01:51:06.718Z,32.42
2019-04-07T01:52:08.374Z,32.43
2019-04-07T01:53:03.501Z,32.45
2019-04-07T01:53:58.209Z,32.51
2019-04-07T01:55:10.319Z,32.55
2019-04-07T01:56:14.143Z,32.60
2019-04-07T01:57:06.911Z,32.66
2019-04-07T01:58:07.334Z,32.67
2019-04-07T01:59:00.476Z,32.66
2019-04-07T01:59:55.706Z,32.61
2019-04-07T02:00:40.376Z,32.59
2019-04-07T02:01:45.187Z,32.61
2019-04-07T02:02:34.759Z,32.69
2019-04-07T02:03:20.385Z,32.87
2019-04-07T02:04:19.081Z,33.10
2019-04-07T02:05:13.417Z,33.25
2019-04-07T02:06:21.053Z,33.28
2019-04-07T02:07:27.284Z,33.23
2019-04-07T02:08:46.314Z,33.17
2019-04-07T02:09:31.612Z,33.19
2019-04-07T02:10:35.173Z,33.24
2019-04-07T02:11:33.978Z,33.29
2019-04-07T02:12:42.430Z,33.36
2019-04-07T02:13:35.234Z,33.40
2019-04-07T02:14:30.289Z,33.41
2019-04-07T02:15:20.047Z,33.40
2019-04-07T02:16:13.619Z,33.39
2019-04-07T02:17:00.901Z,33.38
2019-04-07T02:18:04.077Z,33.35
2019-04-07T02:18:46.713Z,33.33
2019-04-07T02:19:34.985Z,33.30
2019-04-07T02:20:47.593Z,33.32
2019-04-07T02:21:41.029Z,33.31
2019-04-07T02:22:36.620Z,33.30
2019-04-07T02:23:22.867Z,33.27
2019-04-07T02:24:08.074Z,33.20
2019-04-07T02:25:22.961Z,33.18
2019-04-07T02:26:14.702Z,33.15
2019-04-07T02:27:22.922Z,33.17
2019-04-07T02:28:20.333Z,33.46
2019-04-07T02:29:18.091Z,33.90
2019-04-07T02:30:16.201Z,34.16
2019-04-07T02:31:11.605Z,34.36
2019-04-07T02:32:15.290Z,34.56
2019-04-07T02:33:18.135Z,34.76
2019-04-07T02:34:18.074Z,34.93
2019-04-07T02:35:29.999Z,35.09
2019-04-07T02:36:30.658Z,35.20
2019-04-07T02:37:38.800Z,35.34
2019-04-07T02:38:36.873Z,35.44
2019-04-07T02:39:43.830Z,35.54
2019-04-07T02:40:38.304Z,35.65
2019-04-07T02:41:42.480Z,35.75
2019-04-07T02:42:44.378Z,35.80
2019-04-07T02:43:34.456Z,35.88
2019-04-07T02:44:18.460Z,35.95
2019-04-07T02:45:17.060Z,36.00
2019-04-07T02:46:11.086Z,36.05
2019-04-07T02:47:10.490Z,36.11
2019-04-07T02:47:56.488Z,36.11
2019-04-07T02:48:54.568Z,36.12
2019-04-07T02:50:03.483Z,36.22
2019-04-07T02:50:48.079Z,36.36
2019-04-07T02:52:05.710Z,36.36
2019-04-07T02:52:54.626Z,36.31
2019-04-07T02:53:49.253Z,36.26
2019-04-07T02:54:50.331Z,36.18
2019-04-07T02:55:38.130Z,36.10
2019-04-07T02:56:54.061Z,35.95
2019-04-07T02:57:47.419Z,35.87
2019-04-07T02:58:41.350Z,35.71
2019-04-07T02:59:51.584Z,35.64
2019-04-07T03:00:46.841Z,35.55
2019-04-07T03:01:33.032Z,35.42
2019-04-07T03:02:39.944Z,35.34
2019-04-07T03:03:34.692Z,35.30
2019-04-07T03:04:39.227Z,35.23
2019-04-07T03:05:33.383Z,35.28
2019-04-07T03:06:47.490Z,35.53
2019-04-07T03:07:45.165Z,35.71
2019-04-07T03:08:41.649Z,35.94
2019-04-07T03:09:53.433Z,36.16
2019-04-07T03:10:51.416Z,36.34
2019-04-07T03:11:39.283Z,36.53
2019-04-07T03:12:35.449Z,36.62
2019-04-07T03:14:02.088Z,36.78
2019-04-07T03:14:55.719Z,36.92
2019-04-07T03:15:52.857Z,37.09
2019-04-07T03:16:55.824Z,37.21
2019-04-07T03:17:42.389Z,37.28
2019-04-07T03:18:44.278Z,37.37
2019-04-07T03:19:56.386Z,37.37
2019-04-07T03:20:56.692Z,37.38
2019-04-07T03:21:54.284Z,37.45
2019-04-07T03:22:49.302Z,37.54
2019-04-07T03:24:01.050Z,37.62
2019-04-07T03:24:58.803Z,37.70
2019-04-07T03:26:00.869Z,37.76
2019-04-07T03:27:05.839Z,37.84
2019-04-07T03:28:07.218Z,37.91
2019-04-07T03:29:08.630Z,37.96
2019-04-07T03:30:03.545Z,37.97
2019-04-07T03:31:10.402Z,38.00
2019-04-07T03:32:08.516Z,38.04
2019-04-07T03:33:11.254Z,38.08
2019-04-07T03:34:14.774Z,38.11
2019-04-07T03:35:19.803Z,38.13
2019-04-07T03:36:20.453Z,38.13
2019-04-07T03:37:41.034Z,38.15
2019-04-07T03:38:39.472Z,38.20
2019-04-07T03:39:49.253Z,38.22
2019-04-07T03:40:48.244Z,38.24
2019-04-07T03:41:44.799Z,38.25
2019-04-07T03:42:34.358Z,38.21
2019-04-07T03:43:30.394Z,37.99
2019-04-07T03:44:16.156Z,37.67
2019-04-07T03:45:17.748Z,37.34
2019-04-07T03:46:14.299Z,37.13
2019-04-07T03:47:10.225Z,36.82
2019-04-07T03:47:55.772Z,36.49
2019-04-07T03:48:44.501Z,36.34
2019-04-07T03:49:52.986Z,36.17
2019-04-07T03:50:50.827Z,36.05
2019-04-07T03:51:51.489Z,35.90
2019-04-07T03:52:48.996Z,35.75
2019-04-07T03:53:39.363Z,35.60
2019-04-07T03:54:39.952Z,35.41
2019-04-07T03:55:35.224Z,35.31
2019-04-07T03:56:28.529Z,35.21
2019-04-07T03:57:36.279Z,35.23
2019-04-07T03:58:42.923Z,35.48
2019-04-07T03:59:44.720Z,35.45
2019-04-07T04:01:33.021Z,35.36
2019-04-07T04:02:34.508Z,35.30
2019-04-07T04:03:38.770Z,35.11
2019-04-07T04:04:34.779Z,35.04
2019-04-07T04:05:27.370Z,35.00
2019-04-07T04:06:24.699Z,35.14
2019-04-07T04:07:37.142Z,35.19
2019-04-07T04:08:41.691Z,35.15
2019-04-07T04:09:39.161Z,35.13
2019-04-07T04:10:33.019Z,35.07
2019-04-07T04:11:40.613Z,34.98
2019-04-07T04:12:25.633Z,34.91
2019-04-07T04:13:16.556Z,34.74
2019-04-07T04:14:16.505Z,34.64
2019-04-07T04:15:13.476Z,34.64
2019-04-07T04:16:08.026Z,34.68
2019-04-07T04:16:50.871Z,34.63
2019-04-07T04:17:29.068Z,34.52
2019-04-07T04:18:05.480Z,34.41
2019-04-07T04:18:44.743Z,34.36
2019-04-07T04:19:21.110Z,34.25
2019-04-07T04:20:01.237Z,34.20
2019-04-07T04:20:38.854Z,34.13
2019-04-07T04:21:15.426Z,34.01
2019-04-07T04:21:54.436Z,33.92
2019-04-07T04:22:30.885Z,33.85
2019-04-07T04:23:07.803Z,33.76
2019-04-07T04:23:46.214Z,33.64
2019-04-07T04:24:23.011Z,33.62
2019-04-07T04:24:59.449Z,33.57
2019-04-07T04:25:40.729Z,33.52
2019-04-07T04:26:17.817Z,33.45
2019-04-07T04:26:54.692Z,33.39
2019-04-07T04:27:33.317Z,33.35
2019-04-07T04:28:10.825Z,33.29
2019-04-07T04:28:47.258Z,33.20
2019-04-07T04:29:24.596Z,33.14
2019-04-07T04:30:03.114Z,33.10
2019-04-07T04:30:40.425Z,33.06
2019-04-07T04:31:23.256Z,33.02
2019-04-07T04:32:04.155Z,32.96
2019-04-07T04:32:42.310Z,32.93
2019-04-07T04:33:18.508Z,32.87
2019-04-07T04:33:57.917Z,32.86
2019-04-07T04:34:36.961Z,32.84
2019-04-07T04:35:14.992Z,32.79
2019-04-07T04:35:54.533Z,32.76
2019-04-07T04:36:34.551Z,32.73
2019-04-07T04:37:37.574Z,32.69
2019-04-07T04:38:02.316Z,32.67
2019-04-07T04:38:41.603Z,32.64
2019-04-07T04:39:21.288Z,32.65
2019-04-07T04:40:14.078Z,32.64
2019-04-07T04:40:52.746Z,32.65
2019-04-07T04:41:52.033Z,32.66
2019-04-07T04:42:29.694Z,32.65
2019-04-07T04:43:10.193Z,32.67
2019-04-07T04:43:47.229Z,32.68
2019-04-07T04:44:38.845Z,32.69
2019-04-07T04:45:15.885Z,32.70
2019-04-07T04:45:54.823Z,32.70
2019-04-07T04:46:31.154Z,32.67
2019-04-07T04:47:10.740Z,32.69
2019-04-07T04:47:48.331Z,32.71
2019-04-07T04:48:25.859Z,32.73
2019-04-07T04:49:02.641Z,32.75
2019-04-07T04:49:40.439Z,32.77
2019-04-07T04:50:25.811Z,32.80
2019-04-07T04:51:01.978Z,32.81
2019-04-07T04:51:40.976Z,32.83
2019-04-07T04:52:18.019Z,32.85
2019-04-07T04:52:54.624Z,32.89
2019-04-07T04:53:32.054Z,32.91
2019-04-07T04:54:08.512Z,32.95
2019-04-07T04:54:44.667Z,32.99
2019-04-07T04:55:22.188Z,33.02
2019-04-07T04:55:59.451Z,33.05
2019-04-07T04:56:46.924Z,33.08
2019-04-07T04:57:23.360Z,33.12
2019-04-07T04:57:59.606Z,33.16
2019-04-07T04:58:36.063Z,33.19
2019-04-07T04:59:12.816Z,33.23
2019-04-07T04:59:49.262Z,33.22
2019-04-07T05:00:26.477Z,33.24
2019-04-07T05:01:03.064Z,33.26
2019-04-07T05:01:39.739Z,33.24
2019-04-07T05:02:16.041Z,33.27
2019-04-07T05:02:52.711Z,33.29
2019-04-07T05:03:31.584Z,33.32
2019-04-07T05:04:08.000Z,33.32
2019-04-07T05:04:44.750Z,33.37
2019-04-07T05:05:21.277Z,33.46
2019-04-07T05:05:57.778Z,33.56
2019-04-07T05:06:34.506Z,33.70
2019-04-07T05:07:11.309Z,33.86
2019-04-07T05:07:55.867Z,33.88
2019-04-07T05:08:25.891Z,33.90
2019-04-07T05:09:02.228Z,33.95
2019-04-07T05:09:44.037Z,33.99
2019-04-07T05:10:17.079Z,34.04
2019-04-07T05:10:53.404Z,34.08
2019-04-07T05:11:29.546Z,34.13
2019-04-07T05:12:06.909Z,34.19
2019-04-07T05:12:43.682Z,34.24
2019-04-07T05:13:20.360Z,34.28
2019-04-07T05:13:57.088Z,34.32
2019-04-07T05:14:33.627Z,34.34
2019-04-07T05:15:10.871Z,34.39
2019-04-07T05:15:47.853Z,34.50
2019-04-07T05:16:25.164Z,34.59
2019-04-07T05:17:01.670Z,34.64
2019-04-07T05:17:38.224Z,34.68
2019-04-07T05:18:14.908Z,34.79
2019-04-07T05:18:51.840Z,34.92
2019-04-07T05:19:28.784Z,35.01
2019-04-07T05:20:05.834Z,35.09
2019-04-07T05:20:42.716Z,35.22
2019-04-07T05:21:19.545Z,35.31
2019-04-07T05:21:56.058Z,35.41
2019-04-07T05:22:33.256Z,35.52
2019-04-07T05:23:10.008Z,35.62
2019-04-07T05:23:47.082Z,35.71
2019-04-07T05:24:24.726Z,35.80
2019-04-07T05:25:02.299Z,35.89
2019-04-07T05:25:39.157Z,35.95
2019-04-07T05:26:15.760Z,36.04
2019-04-07T05:26:53.071Z,36.08
2019-04-07T05:27:30.276Z,36.13
2019-04-07T05:28:06.997Z,36.15
2019-04-07T05:28:43.911Z,36.15
2019-04-07T05:29:20.335Z,36.23
2019-04-07T05:29:56.914Z,36.20
2019-04-07T05:30:33.729Z,36.20
2019-04-07T05:31:10.649Z,36.24
2019-04-07T05:31:47.474Z,36.30
2019-04-07T05:32:24.505Z,36.38
2019-04-07T05:33:01.765Z,36.40
2019-04-07T05:33:38.573Z,36.36
2019-04-07T05:34:19.319Z,36.29
2019-04-07T05:34:53.523Z,36.24
2019-04-07T05:35:30.144Z,36.18
2019-04-07T05:36:09.263Z,36.12
2019-04-07T05:36:45.714Z,36.09
2019-04-07T05:37:22.102Z,36.07
2019-04-07T05:38:02.662Z,36.07
2019-04-07T05:38:37.734Z,36.05
2019-04-07T05:39:14.173Z,36.09
2019-04-07T05:39:50.722Z,36.15
2019-04-07T05:40:27.774Z,36.23
2019-04-07T05:41:04.260Z,36.31
2019-04-07T05:41:41.508Z,36.40
2019-04-07T05:42:18.846Z,36.47
2019-04-07T05:42:58.735Z,36.56
2019-04-07T05:43:34.012Z,36.63
2019-04-07T05:44:10.411Z,36.69
2019-04-07T05:44:47.610Z,36.80
2019-04-07T05:45:24.802Z,36.90
2019-04-07T05:46:01.743Z,36.93
2019-04-07T05:46:41.462Z,36.91
2019-04-07T05:47:16.538Z,36.89
2019-04-07T05:47:53.477Z,36.94
2019-04-07T05:48:30.156Z,37.05
2019-04-07T05:49:06.662Z,37.16
2019-04-07T05:49:43.383Z,37.28
2019-04-07T05:50:20.119Z,37.38
2019-04-07T05:50:59.934Z,37.39
2019-04-07T05:51:34.217Z,37.36
2019-04-07T05:52:10.504Z,37.31
2019-04-07T05:52:46.827Z,37.26
2019-04-07T05:53:23.462Z,37.22
2019-04-07T05:54:00.296Z,37.12
2019-04-07T05:54:37.856Z,37.09
2019-04-07T05:55:15.199Z,37.04
2019-04-07T05:55:55.386Z,37.02
2019-04-07T05:56:32.516Z,36.97
2019-04-07T05:57:09.674Z,36.94
2019-04-07T05:57:46.516Z,36.93
2019-04-07T05:58:23.318Z,36.88
2019-04-07T05:58:59.669Z,36.82
2019-04-07T05:59:36.522Z,36.77
2019-04-07T06:00:16.349Z,36.69
2019-04-07T06:00:52.102Z,36.62
2019-04-07T06:01:28.417Z,36.60
2019-04-07T06:02:04.650Z,36.55
2019-04-07T06:02:41.630Z,36.52
2019-04-07T06:03:18.517Z,36.55
2019-04-07T06:03:55.420Z,36.53
2019-04-07T06:04:31.769Z,36.48
2019-04-07T06:05:08.472Z,36.44
2019-04-07T06:05:48.259Z,36.39
2019-04-07T06:06:22.672Z,36.34
2019-04-07T06:06:59.110Z,36.28
2019-04-07T06:07:36.749Z,36.25
2019-04-07T06:08:24.657Z,36.23
2019-04-07T06:08:51.832Z,36.17
2019-04-07T06:09:28.178Z,36.13
2019-04-07T06:10:05.370Z,36.08
2019-04-07T06:10:41.612Z,36.05
2019-04-07T06:11:17.864Z,36.06
2019-04-07T06:11:54.481Z,36.07
2019-04-07T06:12:31.503Z,36.05
2019-04-07T06:13:11.282Z,36.09
2019-04-07T06:13:46.624Z,36.13
2019-04-07T06:14:24.309Z,36.16
2019-04-07T06:15:00.656Z,36.17
2019-04-07T06:15:37.105Z,36.16
2019-04-07T06:16:14.024Z,36.14
2019-04-07T06:16:53.594Z,36.10
2019-04-07T06:17:28.499Z,36.08
2019-04-07T06:18:05.181Z,36.06
2019-04-07T06:18:42.147Z,36.06
2019-04-07T06:19:19.141Z,36.04
2019-04-07T06:19:55.787Z,36.06
2019-04-07T06:20:32.345Z,36.09
2019-04-07T06:21:09.316Z,36.15
2019-04-07T06:21:47.355Z,36.18
2019-04-07T06:22:23.839Z,36.24
2019-04-07T06:23:00.392Z,36.27
2019-04-07T06:23:36.582Z,36.34
2019-04-07T06:24:13.397Z,36.37
2019-04-07T06:24:50.236Z,36.41
2019-04-07T06:25:27.321Z,36.44
2019-04-07T06:26:06.662Z,36.49
2019-04-07T06:26:43.914Z,36.52
2019-04-07T06:27:19.691Z,36.54
2019-04-07T06:27:56.848Z,36.58
2019-04-07T06:28:33.815Z,36.58
2019-04-07T06:29:10.550Z,36.57
2019-04-07T06:29:46.998Z,36.60
2019-04-07T06:30:28.131Z,36.61
2019-04-07T06:31:03.525Z,36.61
2019-04-07T06:31:44.858Z,36.56
2019-04-07T06:32:21.892Z,36.52
2019-04-07T06:32:58.217Z,36.49
2019-04-07T06:33:37.370Z,36.44
2019-04-07T06:34:12.342Z,36.39
2019-04-07T06:34:50.024Z,36.34
2019-04-07T06:35:27.035Z,36.26
2019-04-07T06:36:03.852Z,36.19
2019-04-07T06:36:40.821Z,36.17
2019-04-07T06:37:17.758Z,36.16
2019-04-07T06:37:55.782Z,36.16
2019-04-07T06:38:35.585Z,36.16
2019-04-07T06:39:11.157Z,36.11
2019-04-07T06:39:50.728Z,36.09
2019-04-07T06:40:25.571Z,36.12
2019-04-07T06:41:03.026Z,36.12
2019-04-07T06:41:39.509Z,36.16
2019-04-07T06:42:15.778Z,36.18
2019-04-07T06:42:52.073Z,36.23
2019-04-07T06:43:28.195Z,36.26
2019-04-07T06:44:12.683Z,36.24
2019-04-07T06:44:42.660Z,36.20
2019-04-07T06:45:22.754Z,36.27
2019-04-07T06:46:24.629Z,36.32
2019-04-07T06:47:06.697Z,36.37
2019-04-07T06:47:46.117Z,36.43
2019-04-07T06:48:22.307Z,36.46
2019-04-07T06:49:11.184Z,36.47
2019-04-07T06:50:08.599Z,36.53
2019-04-07T06:51:03.912Z,36.58
2019-04-07T06:51:46.491Z,36.61
2019-04-07T06:52:34.583Z,36.60
2019-04-07T06:53:18.917Z,36.60
2019-04-07T06:54:03.594Z,36.62
2019-04-07T06:54:56.195Z,36.62
2019-04-07T06:55:49.708Z,36.61
2019-04-07T06:56:42.058Z,36.55
2019-04-07T06:57:51.877Z,36.47
2019-04-07T06:58:45.464Z,36.42
2019-04-07T06:59:49.068Z,36.35
2019-04-07T07:00:43.324Z,36.23
2019-04-07T07:01:41.115Z,36.13
2019-04-07T07:02:47.910Z,36.15
2019-04-07T07:03:55.192Z,36.14
2019-04-07T07:04:45.816Z,36.22
2019-04-07T07:05:33.579Z,36.29
2019-04-07T07:06:30.979Z,36.26
2019-04-07T07:07:24.130Z,36.22
2019-04-07T07:08:12.657Z,36.15
2019-04-07T07:09:08.292Z,36.18
2019-04-07T07:10:06.631Z,36.18
2019-04-07T07:11:05.821Z,36.25
2019-04-07T07:12:18.293Z,36.29
2019-04-07T07:13:01.525Z,36.39
2019-04-07T07:13:54.861Z,36.46
2019-04-07T07:14:44.965Z,36.53
2019-04-07T07:15:33.782Z,36.55
2019-04-07T07:16:29.948Z,36.55
2019-04-07T07:17:21.170Z,36.56
2019-04-07T07:18:25.664Z,36.57
2019-04-07T07:19:19.691Z,36.61
2019-04-07T07:20:11.286Z,36.65
2019-04-07T07:21:09.085Z,36.70
2019-04-07T07:22:14.812Z,36.72
2019-04-07T07:22:56.203Z,36.71
2019-04-07T07:23:36.382Z,36.74
2019-04-07T07:24:14.672Z,36.74
2019-04-07T07:24:53.201Z,36.77
2019-04-07T07:25:31.140Z,36.78
2019-04-07T07:26:07.289Z,36.83
2019-04-07T07:26:44.138Z,36.87
2019-04-07T07:27:20.765Z,36.91
2019-04-07T07:27:57.767Z,36.92
2019-04-07T07:28:34.766Z,36.89
2019-04-07T07:29:13.229Z,36.93
2019-04-07T07:29:51.898Z,36.94
2019-04-07T07:30:27.216Z,36.93
2019-04-07T07:31:04.295Z,36.88
2019-04-07T07:31:40.505Z,36.88
2019-04-07T07:32:16.987Z,36.88
2019-04-07T07:32:53.301Z,36.90
2019-04-07T07:33:29.633Z,36.86
2019-04-07T07:34:09.277Z,36.84
2019-04-07T07:34:43.918Z,36.83
2019-04-07T07:35:20.242Z,36.78
2019-04-07T07:35:57.011Z,36.76
2019-04-07T07:36:33.832Z,36.72
2019-04-07T07:37:10.604Z,36.74
2019-04-07T07:37:47.601Z,36.72
2019-04-07T07:38:24.716Z,36.74
2019-04-07T07:39:02.451Z,36.73
2019-04-07T07:39:41.950Z,36.73
2019-04-07T07:40:18.349Z,36.73
2019-04-07T07:40:54.710Z,36.71
2019-04-07T07:41:31.205Z,36.69
2019-04-07T07:42:08.196Z,36.65
2019-04-07T07:42:44.447Z,36.61
2019-04-07T07:43:21.104Z,36.60
2019-04-07T07:44:01.422Z,36.58
2019-04-07T07:44:37.552Z,36.57
2019-04-07T07:45:14.000Z,36.55
2019-04-07T07:45:51.233Z,36.55
2019-04-07T07:46:27.917Z,36.55
2019-04-07T07:47:04.230Z,36.56
2019-04-07T07:47:40.442Z,36.58
2019-04-07T07:48:17.495Z,36.56
2019-04-07T07:48:57.081Z,36.57
2019-04-07T07:49:37.058Z,36.52
2019-04-07T07:50:13.572Z,36.49
2019-04-07T07:50:50.156Z,36.44
2019-04-07T07:51:26.754Z,36.44
2019-04-07T07:52:03.143Z,36.44
2019-04-07T07:52:39.891Z,36.43
2019-04-07T07:53:16.825Z,36.40
2019-04-07T07:53:56.582Z,36.41
2019-04-07T07:54:31.613Z,36.41
2019-04-07T07:55:08.114Z,36.42
2019-04-07T07:55:44.546Z,36.43
2019-04-07T07:56:21.355Z,36.45
2019-04-07T07:56:58.066Z,36.47
2019-04-07T07:57:35.476Z,36.47
2019-04-07T07:58:12.230Z,36.46
2019-04-07T07:58:49.270Z,36.48
2019-04-07T07:59:25.464Z,36.47
2019-04-07T08:00:05.147Z,36.46
2019-04-07T08:00:42.176Z,36.47
2019-04-07T08:03:12.074Z,36.53
2019-04-07T08:03:52.987Z,36.51
2019-04-07T08:04:32.130Z,36.52
2019-04-07T08:05:09.259Z,36.54
2019-04-07T08:05:49.348Z,36.54
2019-04-07T08:06:28.361Z,36.55
2019-04-07T08:07:09.048Z,36.57
2019-04-07T08:07:51.223Z,36.54
2019-04-07T08:08:28.946Z,36.52
2019-04-07T08:09:12.819Z,36.51
2019-04-07T08:09:45.521Z,36.48
2019-04-07T08:10:25.008Z,36.47
2019-04-07T08:11:02.635Z,36.48
2019-04-07T08:11:39.744Z,36.46
2019-04-07T08:12:18.102Z,36.46
2019-04-07T08:12:57.364Z,36.46
2019-04-07T08:13:43.346Z,36.46
2019-04-07T08:14:18.234Z,36.46
2019-04-07T08:15:03.427Z,36.45
2019-04-07T08:15:41.445Z,36.44
2019-04-07T08:16:19.250Z,36.43
2019-04-07T08:17:00.172Z,36.42
2019-04-07T08:17:35.637Z,36.41
2019-04-07T08:18:12.459Z,36.39
2019-04-07T08:18:54.360Z,36.38
2019-04-07T08:19:31.808Z,36.34
2019-04-07T08:20:16.433Z,36.30
2019-04-07T08:20:55.047Z,36.28
2019-04-07T08:21:31.611Z,36.26
2019-04-07T08:22:27.577Z,36.23
2019-04-07T08:23:05.288Z,36.22
2019-04-07T08:23:45.165Z,36.19
2019-04-07T08:24:28.376Z,36.16
2019-04-07T08:25:09.741Z,36.14
2019-04-07T08:25:54.472Z,36.11
2019-04-07T08:26:31.732Z,36.09
2019-04-07T08:27:08.929Z,36.07
2019-04-07T08:27:45.476Z,36.06
2019-04-07T08:28:22.665Z,36.06
2019-04-07T08:29:05.616Z,36.06
2019-04-07T08:29:42.002Z,36.01
2019-04-07T08:30:18.535Z,35.99
2019-04-07T08:30:57.646Z,36.00
2019-04-07T08:31:35.098Z,35.97
2019-04-07T08:32:14.097Z,35.97
2019-04-07T08:32:50.502Z,35.97
2019-04-07T08:33:42.071Z,35.97
2019-04-07T08:34:22.344Z,35.96
2019-04-07T08:35:02.714Z,35.97
2019-04-07T08:35:40.771Z,35.98
2019-04-07T08:36:17.294Z,35.99
2019-04-07T08:36:56.363Z,35.97
2019-04-07T08:37:45.914Z,35.95
2019-04-07T08:38:38.888Z,35.96
2019-04-07T08:39:22.848Z,35.94
2019-04-07T08:40:04.770Z,35.96
2019-04-07T08:40:39.300Z,35.95
2019-04-07T08:41:16.681Z,35.96
2019-04-07T08:41:52.999Z,35.96
2019-04-07T08:42:32.891Z,35.96
2019-04-07T08:43:12.629Z,35.95
2019-04-07T08:43:53.225Z,35.94
2019-04-07T08:45:35.044Z,35.85
2019-04-07T08:46:13.648Z,35.81
2019-04-07T08:46:50.802Z,35.82
2019-04-07T08:47:29.068Z,35.81
2019-04-07T08:48:07.330Z,35.83
2019-04-07T08:48:44.433Z,35.84
2019-04-07T08:49:55.400Z,35.85
2019-04-07T08:50:34.276Z,35.86
2019-04-07T08:51:11.369Z,35.85
2019-04-07T08:51:50.976Z,35.84
2019-04-07T08:52:27.224Z,35.85
2019-04-07T08:53:10.315Z,35.85
2019-04-07T08:53:45.269Z,35.85
2019-04-07T08:54:23.215Z,35.84
2019-04-07T08:55:01.786Z,35.85
2019-04-07T08:55:40.541Z,35.84
2019-04-07T08:56:18.422Z,35.82
2019-04-07T08:56:58.524Z,35.80
2019-04-07T08:58:02.501Z,35.79
2019-04-07T08:58:43.296Z,35.77
2019-04-07T08:59:19.570Z,35.73
2019-04-07T08:59:56.266Z,35.72
2019-04-07T09:00:46.503Z,35.69
2019-04-07T09:01:29.578Z,35.67
2019-04-07T09:02:06.429Z,35.63
2019-04-07T09:02:44.700Z,35.61
2019-04-07T09:03:24.635Z,35.58
2019-04-07T09:04:01.580Z,35.54
2019-04-07T09:04:49.742Z,35.52
2019-04-07T09:05:27.675Z,35.51
2019-04-07T09:06:02.988Z,35.48
2019-04-07T09:06:43.881Z,35.45
2019-04-07T09:07:31.027Z,35.41
2019-04-07T09:08:10.105Z,35.39
2019-04-07T09:08:52.212Z,35.34
2019-04-07T09:09:34.926Z,35.33
2019-04-07T09:10:35.607Z,35.30
2019-04-07T09:11:20.041Z,35.26
2019-04-07T09:11:56.738Z,35.26
2019-04-07T09:12:35.025Z,35.27
2019-04-07T09:13:12.156Z,35.26
2019-04-07T09:14:08.548Z,35.27
2019-04-07T09:14:45.648Z,35.29
2019-04-07T09:15:29.557Z,35.27
2019-04-07T09:16:20.017Z,35.27
2019-04-07T09:17:30.916Z,35.25
2019-04-07T09:18:38.932Z,35.23
2019-04-07T09:19:50.861Z,35.21
2019-04-07T09:21:04.528Z,35.15
2019-04-07T09:22:06.282Z,35.11